Coolangatta, Queensland

7:59 PM AEST on December 27, 2014 (GMT +1000)
Coolangatta | Change Station
CLOSE
Current Station
Airport
Location: Coolangatta,
Elevation: 20 ft
Nearby Weather Stations

Elev 20 ft 28.17 °S, 153.51 °E | Updated 20 minutes ago

Overcast
Overcast
68 °F
Feels Like 68 °F
N
10
Wind Variable Wind from SSW

Today
High -- | Low -- °F
--% Chance of Precip.
Yesterday
High -- | Low -- °F
Precip. -- in
4:48 AM 6:44 PM
Waxing Crescent, 35% visible
Pressure 30.01 in
Visibility 3.7 miles
Clouds Overcast 5700 ft
Overcast 7000 ft
Dew Point 66 °F
Humidity 94%
Rainfall 0.00 in
Snow Depth Not available.
UV 0 out of 12
Pollen Not available.
Air Quality Not available.
Flu Activity Not available.
SPECI YBCG 270939Z AUTO 21009KT 6000 // OVC057 OVC070 20/19 Q1016

More Conditions Fewer Conditions

Pressure 30.01 in
Visibility 3.7 miles
Clouds Overcast 5700 ft
Overcast 7000 ft
Dew Point 66 °F
Humidity 94%
Rainfall 0.00 in
Snow Depth Not available.
UV 0 out of 12
Pollen Not available.
Air Quality Not available.
Flu Activity Not available.
SPECI YBCG 270939Z AUTO 21009KT 6000 // OVC057 OVC070 20/19 Q1016

More Conditions Fewer Conditions

10-Day Weather Forecast

Almanac

Astronomy

Dec. 27, 2014 Rise Set
Actual Time
Civil Twilight
Nautical Twilight
Astronomical Twilight
Moon
Length of Visible Light
Length of Day
Tomorrow will be .
, % of the Moon is Illuminated

Today's Extremes

Country Highs Country Lows

Community

WunderPhotos

Upload Photos

1,780,869 photos uploaded!

WunderBlogs® & News

Nearby

Air Quality

  Air Quality AQ Index Pollutant
Not available.

Snow Depth

Station Depth Elevation

Earthquake Activity

City Distance Mag. Time & Date
Minimum magnitude displayed is 2.5.

Coastal Water Temperatures

Place Temperature

Nearby Weather Stations